Saturday, July 26, 2014
05:14 UTC
  |  Log In   |  Register Free
Airport Search:

Henderson Field Airport
(KACZ)

Henderson Field Airport Diagram
No Airport Diagram Available

FAA data valid effective July 24, 2014 until September 18, 2014 (unless otherwise noted).

 
 
 
 
 
 
 
 
 
 
 
 
 
 

Current Aviation Weather for Henderson Field Airport (KACZ)

The most recent METAR observation for KDPL was updated at: 0435 UTC
METAR Summary (Translated METAR)
KDPL
260435Z AUTO 00000KT 7SM SCT070 22/21 A3005 RMK AO2 T02150206
KCTZ
(18.9 nm SW from KDPL)
260435Z AUTO 00000KT 10SM SCT041 SCT055 23/23 A3003 RMK AO2 T02320229
TAF Summary (Translated TAF)
KGSB
(20.4 nm NE from KDPL)
2604/2710 VRB06KT 9999 SCT030 QNH2999INS TEMPO 2605/2610 4800 BR BECMG 2609/2610 VRB06KT 1600 BR BKN002 QNH3002INS BECMG 2612/2613 21006KT 9999 NSW BKN030 QNH2999INS BECMG 2620/2621 22010G15KT 9999 BKN030 QNH2996INS BECMG 2701/2702 21006KT 9999 SCT030 QNH2998INS TX31/2620Z TN20/2608Z
  Airport Weather Conditions for KACZ

Current weather conditions are
not available for ACZ


The nearest NOAA weather station
is at DPL, (17 nm NE from ACZ)
  
 Current Weather at DPL
72° F
Fog/Mist
North winds at 0.0 mph
DPL NOAA Radar

Pressure: 30.05 in
Humidity: 94%
Wind: Calm
Dew Point: 69.8°F
Visibility: 5.00 mi


Airport Weather Forecast for KACZ

Translated METAR and TAF for KDPL
Translated METAR for KDPL (0507 UTC 26 July 2014)
found at http://aviationweather.gov/adds/metars/
 
METAR text: KDPL 260455Z AUTO 00000KT 5SM BR SCT070 21/21 A3004 RMK AO2 T02130205
Conditions at: KDPL (KENANSVILLE/DUPL, NC, US) observed 0455 UTC 26 July 2014
Temperature: 21.3°C (70°F)
Dewpoint: 20.5°C (69°F) [RH = 95%]
Pressure (altimeter): 30.04 inches Hg (1017.4 mb)
Winds: calm
Visibility: 5 miles (8 km)
Ceiling: at least 12,000 feet AGL
Clouds: scattered clouds at 7000 feet AGL
Weather: BR  (mist)
Translated TAF for KDPL

There is no translated TAF available for this airport

Find All Airport Services Find A Hotel Find A Rental Car Find A Golf Course Find A Restaurant $100 Hamburger



FBO's on the Field
FBO Company Facility Photos Services Transportation Aviation Fuel Prices: Prices include tax
Catering Weather Repair Courtesy Rental Type 100LL JetA JetA+ MOGAS 8087
 
Henderson Field

This FBO has not yet been rated
FS:Phillips66
Last Updated: Jul-15
Login to update fuel prices
SS:
Contact Henderson FieldMore FBO Information
 
Add another FBO Facility Photos Catering Weather Repair Courtesy Rental Type 100LL JetA JetA+ MOGAS 8087
Services Transportation Aviation Fuel Prices: Prices include tax


GlobalAir.com Airport Resource Center model-print
model-print
model-print
model-print